createdAt,value
2018-02-18T00:02:11.418Z,18.90
2018-02-18T00:04:38.038Z,18.90
2018-02-18T00:07:04.630Z,18.87
2018-02-18T00:09:31.199Z,18.86
2018-02-18T00:11:57.824Z,18.89
2018-02-18T00:14:24.390Z,18.96
2018-02-18T00:16:50.987Z,18.90
2018-02-18T00:19:17.573Z,19.12
2018-02-18T00:21:44.184Z,19.18
2018-02-18T00:24:10.747Z,19.27
2018-02-18T00:26:37.359Z,19.18
2018-02-18T00:29:03.948Z,19.10
2018-02-18T00:31:30.547Z,19.05
2018-02-18T00:33:57.145Z,18.98
2018-02-18T00:36:23.762Z,18.94
2018-02-18T00:38:50.390Z,18.96
2018-02-18T00:41:16.983Z,18.90
2018-02-18T00:43:43.580Z,18.91
2018-02-18T00:46:10.224Z,18.89
2018-02-18T00:48:36.857Z,18.88
2018-02-18T00:51:03.477Z,18.87
2018-02-18T00:53:30.120Z,18.84
2018-02-18T00:55:56.743Z,18.85
2018-02-18T00:58:23.397Z,18.83
2018-02-18T01:00:49.947Z,18.84
2018-02-18T01:03:16.570Z,18.90
2018-02-18T01:05:43.168Z,18.89
2018-02-18T01:08:09.745Z,18.84
2018-02-18T01:10:36.347Z,18.85
2018-02-18T01:13:02.915Z,18.80
2018-02-18T01:15:29.558Z,18.85
2018-02-18T01:17:56.119Z,18.86
2018-02-18T01:20:22.698Z,18.82
2018-02-18T01:22:49.272Z,18.81
2018-02-18T01:25:15.839Z,18.80
2018-02-18T01:27:42.469Z,18.78
2018-02-18T01:30:09.118Z,18.78
2018-02-18T01:32:35.689Z,18.75
2018-02-18T01:35:02.308Z,18.76
2018-02-18T01:37:28.988Z,18.77
2018-02-18T01:39:55.641Z,18.76
2018-02-18T01:42:22.254Z,18.73
2018-02-18T01:44:48.836Z,18.71
2018-02-18T01:47:15.450Z,18.72
2018-02-18T01:49:42.163Z,18.70
2018-02-18T01:54:35.347Z,18.72
2018-02-18T01:57:01.921Z,18.66
2018-02-18T01:59:28.546Z,18.69
2018-02-18T02:01:55.186Z,18.69
2018-02-18T02:04:21.823Z,18.66
2018-02-18T02:06:48.402Z,18.69
2018-02-18T02:09:15.064Z,18.68
2018-02-18T02:11:41.693Z,18.67
2018-02-18T02:14:08.270Z,18.69
2018-02-18T02:16:34.878Z,18.70
2018-02-18T02:19:01.460Z,18.69
2018-02-18T02:21:28.095Z,18.67
2018-02-18T02:23:54.654Z,18.65
2018-02-18T02:26:21.267Z,18.66
2018-02-18T02:28:47.886Z,18.71
2018-02-18T02:31:14.495Z,18.64
2018-02-18T02:33:41.073Z,18.71
2018-02-18T02:36:07.674Z,18.64
2018-02-18T02:38:34.311Z,18.61
2018-02-18T02:41:00.891Z,18.68
2018-02-18T02:43:27.522Z,18.65
2018-02-18T02:45:54.097Z,18.66
2018-02-18T02:48:20.668Z,18.64
2018-02-18T02:50:47.394Z,18.62
2018-02-18T02:53:14.012Z,18.64
2018-02-18T02:55:40.628Z,18.69
2018-02-18T02:58:07.211Z,18.68
2018-02-18T03:00:33.806Z,18.70
2018-02-18T03:03:00.385Z,18.69
2018-02-18T03:05:26.985Z,18.67
2018-02-18T03:07:53.566Z,18.71
2018-02-18T03:10:20.140Z,18.70
2018-02-18T03:12:46.751Z,18.70
2018-02-18T03:15:13.329Z,18.65
2018-02-18T03:17:39.893Z,18.68
2018-02-18T03:20:06.457Z,18.70
2018-02-18T03:22:33.027Z,18.68
2018-02-18T03:24:59.589Z,18.70
2018-02-18T03:27:26.154Z,18.69
2018-02-18T03:29:52.719Z,18.69
2018-02-18T03:32:19.281Z,18.68
2018-02-18T03:34:45.902Z,18.72
2018-02-18T03:37:12.474Z,18.68
2018-02-18T03:39:39.086Z,18.65
2018-02-18T03:42:05.658Z,18.65
2018-02-18T03:44:32.240Z,18.64
2018-02-18T03:46:58.805Z,18.62
2018-02-18T03:49:25.370Z,18.65
2018-02-18T03:51:51.940Z,18.67
2018-02-18T03:54:18.495Z,18.70
2018-02-18T03:56:45.102Z,18.67
2018-02-18T03:59:11.707Z,18.64
2018-02-18T04:01:38.355Z,18.62
2018-02-18T04:04:04.928Z,18.66
2018-02-18T04:06:31.505Z,18.65
2018-02-18T04:08:58.104Z,18.63
2018-02-18T04:11:24.673Z,18.67
2018-02-18T04:13:51.232Z,18.63
2018-02-18T04:16:17.834Z,18.65
2018-02-18T04:18:44.395Z,18.67
2018-02-18T04:21:11.223Z,18.67
2018-02-18T04:23:37.823Z,18.65
2018-02-18T04:26:04.410Z,18.66
2018-02-18T04:28:30.990Z,18.67
2018-02-18T04:30:57.587Z,18.65
2018-02-18T04:33:24.153Z,18.67
2018-02-18T04:35:50.714Z,18.65
2018-02-18T04:38:17.555Z,18.64
2018-02-18T04:40:44.131Z,18.71
2018-02-18T04:43:10.703Z,18.68
2018-02-18T04:45:37.303Z,18.66
2018-02-18T04:48:03.883Z,18.69
2018-02-18T04:50:30.611Z,18.69
2018-02-18T04:52:57.214Z,18.68
2018-02-18T04:55:23.812Z,18.71
2018-02-18T06:59:55.511Z,18.46
2018-02-18T07:02:22.076Z,18.47
2018-02-18T07:04:48.696Z,18.46
2018-02-18T07:07:15.393Z,18.47
2018-02-18T07:09:42.006Z,18.53
2018-02-18T07:12:08.570Z,18.51
2018-02-18T07:14:35.197Z,18.54
2018-02-18T07:17:01.775Z,18.55
2018-02-18T07:19:28.387Z,18.54
2018-02-18T07:21:54.992Z,18.57
2018-02-18T07:24:21.568Z,18.58
2018-02-18T07:26:48.168Z,18.56
2018-02-18T07:29:14.729Z,18.57
2018-02-18T07:31:41.336Z,18.56
2018-02-18T07:34:08.062Z,18.56
2018-02-18T07:36:34.630Z,18.55
2018-02-18T07:39:01.196Z,18.55
2018-02-18T07:41:27.810Z,18.55
2018-02-18T07:43:54.409Z,18.55
2018-02-18T07:46:21.004Z,18.52
2018-02-18T07:48:47.590Z,18.47
2018-02-18T07:51:14.204Z,18.41
2018-02-18T07:53:40.800Z,18.36
2018-02-18T07:56:07.366Z,18.29
2018-02-18T07:58:33.924Z,18.25
2018-02-18T08:01:00.487Z,18.20
2018-02-18T08:03:27.097Z,18.23
2018-02-18T08:05:53.678Z,18.28
2018-02-18T08:08:20.281Z,18.25
2018-02-18T08:10:46.880Z,18.35
2018-02-18T08:13:13.474Z,18.34
2018-02-18T08:15:40.080Z,18.45
2018-02-18T08:18:06.640Z,17.88
2018-02-18T08:20:33.254Z,18.50
2018-02-18T08:22:59.862Z,18.63
2018-02-18T08:25:26.475Z,18.66
2018-02-18T08:27:53.037Z,18.72
2018-02-18T08:30:19.600Z,18.66
2018-02-18T08:32:46.249Z,18.55
2018-02-18T08:35:12.822Z,18.43
2018-02-18T08:37:39.386Z,18.39
2018-02-18T08:40:06.056Z,18.28
2018-02-18T08:42:32.632Z,18.27
2018-02-18T08:44:59.282Z,18.23
2018-02-18T08:47:25.854Z,18.25
2018-02-18T08:49:52.559Z,18.29
2018-02-18T08:52:19.152Z,18.32
2018-02-18T08:54:45.790Z,18.35
2018-02-18T08:57:12.384Z,18.40
2018-02-18T08:59:39.007Z,18.43
2018-02-18T09:02:05.640Z,18.46
2018-02-18T09:04:32.221Z,18.50
2018-02-18T09:06:58.770Z,18.51
2018-02-18T09:09:25.362Z,18.53
2018-02-18T09:11:51.926Z,18.52
2018-02-18T09:14:18.539Z,18.59
2018-02-18T09:16:45.164Z,18.64
2018-02-18T09:19:11.770Z,18.67
2018-02-18T09:21:38.340Z,18.72
2018-02-18T09:24:04.979Z,18.71
2018-02-18T09:26:31.610Z,18.73
2018-02-18T09:28:58.207Z,18.76
2018-02-18T09:31:24.786Z,18.78
2018-02-18T09:33:51.421Z,18.78
2018-02-18T09:36:18.019Z,18.77
2018-02-18T09:38:44.626Z,18.81
2018-02-18T09:41:11.194Z,18.85
2018-02-18T09:43:37.813Z,18.88
2018-02-18T09:46:04.456Z,18.88
2018-02-18T09:48:31.098Z,18.88
2018-02-18T09:50:57.666Z,18.90
2018-02-18T09:53:24.289Z,18.88
2018-02-18T09:55:50.943Z,18.90
2018-02-18T09:58:17.539Z,18.90
2018-02-18T10:00:44.124Z,18.90
2018-02-18T10:03:10.739Z,18.94
2018-02-18T10:05:37.337Z,18.94
2018-02-18T10:08:04.162Z,18.98
2018-02-18T10:10:30.720Z,19.03
2018-02-18T10:12:57.285Z,18.99
2018-02-18T10:15:23.860Z,19.03
2018-02-18T10:17:50.435Z,19.02
2018-02-18T10:20:17.111Z,19.06
2018-02-18T10:22:43.686Z,19.01
2018-02-18T10:25:10.261Z,19.04
2018-02-18T10:27:36.881Z,19.01
2018-02-18T10:30:03.463Z,19.06
2018-02-18T10:32:30.030Z,19.04
2018-02-18T10:34:56.595Z,19.07
2018-02-18T10:37:23.214Z,19.05
2018-02-18T10:39:49.724Z,19.07
2018-02-18T10:42:16.291Z,19.04
2018-02-18T10:44:42.868Z,19.03
2018-02-18T10:47:09.462Z,19.03
2018-02-18T10:49:36.034Z,19.04
2018-02-18T10:52:02.647Z,19.03
2018-02-18T10:54:29.215Z,19.02
2018-02-18T10:56:55.798Z,19.00
2018-02-18T10:59:22.363Z,19.05
2018-02-18T11:01:48.934Z,19.03
2018-02-18T11:04:15.558Z,19.04
2018-02-18T11:06:42.198Z,19.03
2018-02-18T11:09:08.788Z,19.04
2018-02-18T11:11:35.351Z,19.04
2018-02-18T11:14:01.912Z,19.01
2018-02-18T11:16:28.502Z,19.00
2018-02-18T11:18:55.107Z,18.98
2018-02-18T11:21:21.690Z,18.95
2018-02-18T11:23:48.378Z,18.91
2018-02-18T11:26:14.963Z,18.88
2018-02-18T11:28:41.588Z,18.87
2018-02-18T11:31:08.162Z,18.87
2018-02-18T11:33:34.806Z,18.84
2018-02-18T11:36:01.518Z,18.82
2018-02-18T11:38:28.104Z,18.80
2018-02-18T11:40:55.863Z,18.78
2018-02-18T11:43:21.313Z,18.77
2018-02-18T11:45:47.877Z,18.77
2018-02-18T11:48:14.447Z,18.75
2018-02-18T11:50:41.024Z,18.75
2018-02-18T11:53:07.663Z,18.71
2018-02-18T11:55:34.264Z,18.71
2018-02-18T11:58:00.867Z,18.70
2018-02-18T12:00:27.437Z,18.72
2018-02-18T12:02:54.079Z,18.70
2018-02-18T12:05:20.647Z,18.69
2018-02-18T12:07:47.202Z,18.64
2018-02-18T12:10:13.830Z,18.67
2018-02-18T12:12:40.409Z,18.64
2018-02-18T12:15:06.970Z,18.66
2018-02-18T12:17:33.534Z,18.67
2018-02-18T12:20:00.102Z,18.65
2018-02-18T12:22:26.721Z,18.65
2018-02-18T12:24:53.291Z,18.61
2018-02-18T12:27:19.893Z,18.67
2018-02-18T12:29:46.464Z,18.73
2018-02-18T12:32:13.023Z,18.70
2018-02-18T12:34:39.662Z,18.79
2018-02-18T12:37:06.278Z,18.76
2018-02-18T12:39:32.848Z,18.83
2018-02-18T12:41:59.413Z,18.82
2018-02-18T12:44:26.023Z,18.88
2018-02-18T12:46:52.581Z,18.90
2018-02-18T12:49:19.182Z,18.96
2018-02-18T12:51:45.742Z,18.95
2018-02-18T12:54:12.350Z,19.00
2018-02-18T12:56:38.915Z,18.98
2018-02-18T12:59:05.480Z,18.98
2018-02-18T13:01:32.104Z,18.99
2018-02-18T13:03:58.717Z,19.02
2018-02-18T13:06:25.276Z,19.04
2018-02-18T13:08:51.890Z,19.05
2018-02-18T13:11:18.459Z,19.09
2018-02-18T13:13:45.034Z,19.11
2018-02-18T13:16:11.643Z,19.12
2018-02-18T13:18:38.218Z,19.14
2018-02-18T13:21:04.790Z,19.16
2018-02-18T13:23:31.374Z,19.18
2018-02-18T13:25:57.999Z,19.19
2018-02-18T13:28:24.562Z,19.20
2018-02-18T13:30:51.383Z,19.23
2018-02-18T13:33:17.965Z,19.25
2018-02-18T13:35:44.535Z,19.25
2018-02-18T13:38:11.158Z,19.27
2018-02-18T13:40:37.755Z,19.28
2018-02-18T13:43:04.373Z,19.29
2018-02-18T13:45:30.900Z,19.29
2018-02-18T13:47:57.465Z,19.30
2018-02-18T13:50:24.028Z,19.32
2018-02-18T13:52:50.587Z,19.33
2018-02-18T13:55:17.197Z,19.32
2018-02-18T13:57:43.773Z,19.34
2018-02-18T14:00:10.338Z,19.35
2018-02-18T14:02:36.947Z,19.36
2018-02-18T14:05:03.518Z,19.36
2018-02-18T14:07:30.072Z,19.38
2018-02-18T14:09:56.634Z,19.38
2018-02-18T14:12:23.194Z,19.39
2018-02-18T14:14:49.761Z,19.38
2018-02-18T14:20:10.190Z,19.44
2018-02-18T14:22:36.758Z,19.46
2018-02-18T14:25:03.365Z,19.47
2018-02-18T14:27:29.933Z,19.49
2018-02-18T14:29:56.511Z,19.47
2018-02-18T14:32:23.066Z,19.51
2018-02-18T14:34:49.670Z,19.48
2018-02-18T14:37:16.227Z,19.52
2018-02-18T14:39:42.786Z,19.51
2018-02-18T14:42:09.350Z,19.55
2018-02-18T14:44:35.950Z,19.53
2018-02-18T14:47:02.559Z,19.60
2018-02-18T14:49:29.282Z,19.57
2018-02-18T14:51:55.856Z,19.58
2018-02-18T14:54:22.421Z,19.61
2018-02-18T14:56:49.147Z,19.63
2018-02-18T14:59:15.856Z,19.64
2018-02-18T15:01:42.516Z,19.66
2018-02-18T15:04:09.123Z,19.67
2018-02-18T15:06:35.756Z,19.72
2018-02-18T15:09:02.380Z,19.69
2018-02-18T15:11:29.010Z,19.72
2018-02-18T15:13:55.692Z,19.68
2018-02-18T15:16:22.289Z,19.77
2018-02-18T15:18:48.849Z,19.77
2018-02-18T15:21:15.517Z,19.78
2018-02-18T15:23:42.213Z,19.80
2018-02-18T15:26:08.784Z,19.80
2018-02-18T15:28:35.363Z,19.79
2018-02-18T15:31:01.995Z,19.83
2018-02-18T15:33:28.629Z,19.86
2018-02-18T15:35:55.198Z,19.84
2018-02-18T15:38:21.817Z,19.87
2018-02-18T15:40:48.380Z,19.88
2018-02-18T15:43:15.177Z,19.90
2018-02-18T15:45:41.760Z,19.90
2018-02-18T15:48:08.373Z,19.90
2018-02-18T15:50:34.997Z,19.92
2018-02-18T15:53:01.592Z,19.94
2018-02-18T15:55:28.256Z,19.93
2018-02-18T15:57:54.854Z,19.97
2018-02-18T16:00:21.428Z,19.94
2018-02-18T16:02:48.075Z,19.98
2018-02-18T16:05:14.669Z,19.98
2018-02-18T16:07:41.248Z,20.01
2018-02-18T16:10:07.833Z,20.02
2018-02-18T16:12:59.786Z,20.03
2018-02-18T16:15:26.351Z,20.02
2018-02-18T16:17:52.960Z,20.00
2018-02-18T16:20:19.529Z,20.07
2018-02-18T16:22:46.226Z,20.07
2018-02-18T16:25:12.865Z,20.13
2018-02-18T16:27:39.430Z,20.19
2018-02-18T16:30:06.046Z,20.32
2018-02-18T16:32:32.664Z,20.37
2018-02-18T16:34:59.310Z,20.25
2018-02-18T16:37:25.892Z,20.20
2018-02-18T16:39:52.509Z,20.20
2018-02-18T16:42:19.171Z,20.15
2018-02-18T16:44:45.868Z,20.11
2018-02-18T16:47:12.456Z,20.15
2018-02-18T16:49:39.040Z,20.18
2018-02-18T16:52:05.612Z,20.21
2018-02-18T16:54:32.420Z,20.23
2018-02-18T16:56:58.990Z,20.26
2018-02-18T16:59:25.553Z,20.25
2018-02-18T17:01:52.132Z,20.28
2018-02-18T17:04:18.729Z,20.31
2018-02-18T17:06:45.399Z,20.33
2018-02-18T17:09:12.374Z,20.38
2018-02-18T17:11:39.010Z,20.37
2018-02-18T17:14:05.597Z,20.38
2018-02-18T17:16:32.174Z,20.44
2018-02-18T17:18:58.804Z,20.38
2018-02-18T17:21:25.373Z,20.45
2018-02-18T17:23:51.969Z,20.32
2018-02-18T17:26:18.584Z,20.40
2018-02-18T17:28:45.228Z,20.47
2018-02-18T17:31:11.836Z,20.44
2018-02-18T17:33:38.460Z,20.44
2018-02-18T17:36:05.032Z,20.44
2018-02-18T17:38:31.663Z,20.44
2018-02-18T17:40:58.276Z,20.43
2018-02-18T17:43:24.859Z,20.43
2018-02-18T17:45:51.508Z,20.43
2018-02-18T17:48:18.082Z,20.43
2018-02-18T17:50:44.675Z,20.44
2018-02-18T17:53:11.311Z,20.43
2018-02-18T17:55:37.886Z,20.45
2018-02-18T17:58:04.485Z,20.43
2018-02-18T18:00:31.075Z,20.44
2018-02-18T18:02:57.753Z,20.42
2018-02-18T18:05:24.263Z,20.46
2018-02-18T18:07:50.880Z,20.43
2018-02-18T18:10:17.494Z,20.49
2018-02-18T18:12:44.111Z,20.43
2018-02-18T18:15:10.717Z,20.47
2018-02-18T18:17:37.292Z,20.47
2018-02-18T18:20:03.934Z,20.53
2018-02-18T18:22:30.556Z,20.55
2018-02-18T18:24:57.149Z,20.50
2018-02-18T18:27:23.733Z,20.49
2018-02-18T18:29:50.337Z,20.50
2018-02-18T18:32:16.955Z,20.53
2018-02-18T18:34:43.574Z,20.53
2018-02-18T18:37:10.138Z,20.51
2018-02-18T18:39:36.718Z,20.51
2018-02-18T18:42:03.319Z,20.50
2018-02-18T18:44:29.938Z,20.51
2018-02-18T18:46:56.484Z,20.51
2018-02-18T18:49:23.054Z,20.51
2018-02-18T18:51:49.630Z,20.50
2018-02-18T18:54:16.203Z,20.52
2018-02-18T18:56:42.766Z,20.51
2018-02-18T18:59:09.377Z,20.51
2018-02-18T19:01:36.003Z,20.53
2018-02-18T19:04:02.595Z,20.53
2018-02-18T19:06:29.199Z,20.49
2018-02-18T19:08:55.769Z,20.51
2018-02-18T19:11:22.434Z,20.53
2018-02-18T19:13:49.067Z,20.48
2018-02-18T19:16:15.622Z,20.49
2018-02-18T19:18:57.007Z,20.51
2018-02-18T19:21:23.576Z,20.48
2018-02-18T19:23:50.150Z,20.49
2018-02-18T19:26:16.794Z,20.55
2018-02-18T19:28:43.467Z,20.54
2018-02-18T19:31:10.112Z,20.51
2018-02-18T19:33:36.720Z,20.51
2018-02-18T19:36:03.380Z,20.55
2018-02-18T19:38:30.003Z,20.55
2018-02-18T19:40:56.597Z,20.54
2018-02-18T19:43:23.177Z,20.56
2018-02-18T19:45:49.766Z,20.56
2018-02-18T19:48:16.356Z,20.54
2018-02-18T19:50:42.939Z,20.59
2018-02-18T19:53:09.537Z,20.54
2018-02-18T19:55:36.104Z,20.58
2018-02-18T19:58:02.691Z,20.60
2018-02-18T20:00:29.305Z,20.63
2018-02-18T20:02:55.927Z,20.62
2018-02-18T20:05:22.544Z,20.63
2018-02-18T20:07:49.153Z,20.63
2018-02-18T20:10:15.796Z,20.66
2018-02-18T20:12:42.464Z,20.63
2018-02-18T20:15:09.084Z,20.66
2018-02-18T20:17:35.693Z,20.67
2018-02-18T20:20:02.275Z,20.70
2018-02-18T20:22:28.977Z,20.72
2018-02-18T20:24:55.591Z,20.77
2018-02-18T20:27:22.197Z,20.77
2018-02-18T20:29:48.791Z,20.80
2018-02-18T20:32:15.397Z,20.80
2018-02-18T20:34:41.994Z,20.85
2018-02-18T20:37:08.586Z,20.84
2018-02-18T20:39:35.185Z,20.89
2018-02-18T20:42:01.787Z,20.94
2018-02-18T20:44:28.434Z,20.95
2018-02-18T20:46:55.037Z,21.01
2018-02-18T20:49:21.614Z,21.02
2018-02-18T20:51:48.206Z,21.06
2018-02-18T20:54:14.851Z,21.08
2018-02-18T20:56:41.479Z,21.08
2018-02-18T20:59:08.100Z,21.13
2018-02-18T21:01:34.698Z,21.10
2018-02-18T21:04:01.347Z,21.20
2018-02-18T21:06:27.943Z,21.22
2018-02-18T21:08:54.558Z,21.26
2018-02-18T21:11:21.166Z,21.28
2018-02-18T21:13:47.770Z,21.32
2018-02-18T21:16:14.368Z,21.33
2018-02-18T21:18:41.138Z,21.38
2018-02-18T21:21:07.708Z,21.37
2018-02-18T21:23:34.303Z,21.41
2018-02-18T21:26:00.982Z,21.48
2018-02-18T21:28:27.567Z,21.43
2018-02-18T21:30:54.174Z,21.50
2018-02-18T21:33:21.043Z,21.49
2018-02-18T21:35:47.620Z,21.53
2018-02-18T21:38:14.192Z,21.53
2018-02-18T21:40:40.823Z,21.55
2018-02-18T21:43:07.382Z,21.62
2018-02-18T21:45:33.992Z,21.63
2018-02-18T21:48:00.861Z,21.65
2018-02-18T21:50:27.418Z,21.63
2018-02-18T21:52:53.982Z,21.66
2018-02-18T21:55:20.542Z,21.69
2018-02-18T21:57:47.177Z,21.62
2018-02-18T22:00:13.774Z,21.74
2018-02-18T22:02:40.326Z,21.74
2018-02-18T22:05:06.952Z,21.72
2018-02-18T22:07:33.516Z,21.70
2018-02-18T22:10:00.104Z,21.72
2018-02-18T22:12:26.747Z,21.75
2018-02-18T22:14:53.331Z,21.76
2018-02-18T22:17:19.931Z,21.75
2018-02-18T22:19:46.593Z,21.83
2018-02-18T22:22:13.190Z,21.84
2018-02-18T22:24:39.754Z,21.85
2018-02-18T22:27:06.346Z,21.81
2018-02-18T22:29:32.933Z,21.85
2018-02-18T22:31:59.569Z,21.84
2018-02-18T22:34:26.135Z,21.88
2018-02-18T22:36:52.710Z,21.89
2018-02-18T22:39:19.282Z,21.83
2018-02-18T22:41:45.908Z,21.89
2018-02-18T22:44:12.475Z,21.90
2018-02-18T22:46:39.038Z,21.93
2018-02-18T22:49:05.608Z,21.93
2018-02-18T22:51:32.217Z,21.93
2018-02-18T22:53:58.884Z,21.88
2018-02-18T22:56:25.514Z,21.93
2018-02-18T22:58:52.132Z,21.93
2018-02-18T23:01:18.726Z,21.92
2018-02-18T23:03:45.465Z,21.99
2018-02-18T23:06:12.002Z,21.93
2018-02-18T23:08:38.568Z,22.00
2018-02-18T23:11:05.186Z,22.00
2018-02-18T23:13:31.776Z,21.96
2018-02-18T23:15:58.376Z,22.01
2018-02-18T23:18:24.987Z,21.98
2018-02-18T23:20:51.581Z,22.01
2018-02-18T23:23:18.163Z,22.04
2018-02-18T23:25:44.806Z,22.05
2018-02-18T23:28:11.456Z,22.01
2018-02-18T23:30:38.058Z,22.05
2018-02-18T23:33:04.656Z,22.02
2018-02-18T23:35:31.331Z,22.03
2018-02-18T23:37:57.913Z,22.00
2018-02-18T23:40:24.513Z,21.99
2018-02-18T23:42:51.075Z,21.98
2018-02-18T23:45:17.657Z,22.02
2018-02-18T23:47:44.255Z,22.02
2018-02-18T23:50:10.881Z,22.08
2018-02-18T23:52:37.466Z,21.98
2018-02-18T23:55:04.072Z,22.03
2018-02-18T23:57:30.674Z,21.97
2018-02-18T23:59:57.264Z,21.99
